Time;durP1;ratioP1;P1;durP2;ratioP2;P2;SDS_P1;SDS_P2;PMS_P1;PMS_P2;Temp;Humidity;BMP_temperature;BMP_pressure;BME280_temperature;BME280_humidity;BME280_pressure;Samples;Min_cycle;Max_cycle;Signal;HPM_P1;HPM_P2
2023/01/24 00:01:33;;;;;;;1999.90;999.90;;;3.50;99.90;;;;;;6717980;88;20274;-75
2023/01/24 00:11:34;;;;;;;1999.90;999.90;;;3.40;99.90;;;;;;6716641;88;20192;-74
2023/01/24 00:21:35;;;;;;;1999.90;999.90;;;3.40;99.90;;;;;;6719948;88;20231;-75
2023/01/24 00:31:35;;;;;;;1999.90;999.90;;;3.40;99.90;;;;;;6714681;88;20885;-75
2023/01/24 00:41:36;;;;;;;1999.90;999.90;;;3.40;99.90;;;;;;6717816;88;20267;-75
2023/01/24 00:51:36;;;;;;;1999.90;999.90;;;3.40;99.90;;;;;;6715659;88;20178;-75
2023/01/24 01:01:37;;;;;;;1999.90;999.90;;;3.30;99.90;;;;;;6719387;88;20318;-76
2023/01/24 01:11:41;;;;;;;1999.90;999.90;;;3.40;99.90;;;;;;6724174;88;20208;-76
2023/01/24 01:21:44;;;;;;;1999.90;999.90;;;3.30;99.90;;;;;;6722925;88;20218;-75
2023/01/24 01:31:44;;;;;;;1999.90;999.90;;;3.30;99.90;;;;;;6721828;88;20320;-75
2023/01/24 01:41:45;;;;;;;1999.90;999.90;;;3.30;99.90;;;;;;6719701;88;20166;-75
2023/01/24 01:51:49;;;;;;;1999.90;999.90;;;3.40;99.90;;;;;;6721817;88;20300;-75
2023/01/24 02:01:52;;;;;;;1999.90;999.90;;;3.30;99.90;;;;;;6721702;88;20214;-75
2023/01/24 02:11:56;;;;;;;1999.90;999.90;;;3.30;99.90;;;;;;6725545;88;20186;-75
2023/01/24 02:22:07;;;;;;;1999.90;999.90;;;3.20;99.90;;;;;;6718529;88;20211;-75
2023/01/24 02:32:08;;;;;;;1999.90;999.90;;;3.30;99.90;;;;;;6720085;88;20285;-74
2023/01/24 02:42:13;;;;;;;1999.90;999.90;;;3.20;99.90;;;;;;6719333;88;20197;-75
2023/01/24 03:02:32;;;;;;;1999.90;999.90;;;3.20;99.90;;;;;;6720770;88;21484;-75
2023/01/24 03:43:20;;;;;;;1999.90;999.90;;;3.00;99.90;;;;;;6744720;88;20200;-78
2023/01/24 03:53:24;;;;;;;1999.90;999.90;;;3.00;99.90;;;;;;6740000;88;20182;-78
2023/01/24 04:03:25;;;;;;;1999.90;999.90;;;3.00;99.90;;;;;;6706471;88;20177;-79
2023/01/24 04:13:26;;;;;;;1999.90;999.90;;;3.00;99.90;;;;;;6655022;89;20758;-79
2023/01/24 04:23:39;;;;;;;1999.90;999.90;;;3.00;99.90;;;;;;6655119;89;20196;-78
2023/01/24 04:33:47;;;;;;;1999.90;999.90;;;3.00;99.90;;;;;;6678923;89;20201;-79
2023/01/24 04:43:48;;;;;;;1999.90;999.90;;;3.00;99.90;;;;;;6711440;88;20237;-80
2023/01/24 04:53:48;;;;;;;1999.90;999.90;;;2.90;99.90;;;;;;6740626;88;20668;-79
2023/01/24 05:03:49;;;;;;;1999.90;999.90;;;2.80;99.90;;;;;;6744228;88;20233;-80
2023/01/24 05:13:50;;;;;;;1999.90;999.90;;;2.80;99.90;;;;;;6739144;88;20530;-79
2023/01/24 05:23:52;;;;;;;1999.90;999.90;;;2.80;99.90;;;;;;6742114;88;20280;-79
2023/01/24 05:33:53;;;;;;;1999.90;999.90;;;3.00;99.90;;;;;;6721784;88;20387;-79
2023/01/24 05:43:53;;;;;;;1999.90;999.90;;;2.90;99.90;;;;;;6725206;88;20190;-81
2023/01/24 05:53:54;;;;;;;1999.90;999.90;;;2.80;99.90;;;;;;6727164;88;20182;-78
2023/01/24 06:03:54;;;;;;;1999.90;999.90;;;2.80;99.90;;;;;;6728564;88;20208;-79
2023/01/24 06:13:55;;;;;;;1999.90;999.90;;;2.80;99.90;;;;;;6725910;88;20329;-78
2023/01/24 06:23:56;;;;;;;1999.90;999.90;;;2.70;99.90;;;;;;6724272;88;20540;-80
2023/01/24 06:34:34;;;;;;;1999.90;999.90;;;2.70;99.90;;;;;;6727191;88;20189;-79
2023/01/24 06:44:34;;;;;;;1999.90;999.90;;;2.80;99.90;;;;;;6721517;88;20177;-77
2023/01/24 06:54:35;;;;;;;1999.90;999.90;;;2.70;99.90;;;;;;6712260;88;20433;-79
2023/01/24 07:04:36;;;;;;;1999.90;999.90;;;2.70;99.90;;;;;;6713886;88;20196;-78
2023/01/24 07:14:36;;;;;;;1999.90;999.90;;;2.70;99.90;;;;;;6716181;88;20215;-77
2023/01/24 07:24:38;;;;;;;1999.90;999.90;;;2.70;99.90;;;;;;6716685;88;20257;-79
2023/01/24 07:34:38;;;;;;;1999.90;999.90;;;2.70;99.90;;;;;;6711243;88;20210;-79
2023/01/24 07:44:39;;;;;;;1999.90;999.90;;;2.70;99.90;;;;;;6709663;88;20206;-76
2023/01/24 07:54:39;;;;;;;1999.90;999.90;;;2.60;99.90;;;;;;6708149;88;20213;-78
2023/01/24 08:04:40;;;;;;;1999.90;999.90;;;2.60;99.90;;;;;;6707361;88;20224;-79
2023/01/24 08:14:41;;;;;;;1999.90;999.90;;;2.90;99.90;;;;;;6708738;88;20264;-77
2023/01/24 08:24:41;;;;;;;1999.90;999.90;;;2.80;99.90;;;;;;6710007;88;20185;-79
2023/01/24 08:34:42;;;;;;;1999.90;999.90;;;2.80;99.90;;;;;;6709168;88;20699;-79
2023/01/24 08:44:42;;;;;;;1999.90;999.90;;;2.80;99.90;;;;;;6709811;88;20190;-78
2023/01/24 08:54:43;;;;;;;1999.90;999.90;;;3.00;99.90;;;;;;6708270;88;20499;-78
2023/01/24 09:04:43;;;;;;;1999.90;999.90;;;3.00;99.90;;;;;;6708457;88;20248;-77
2023/01/24 09:14:44;;;;;;;1999.90;999.90;;;2.90;99.90;;;;;;6707877;88;20190;-77
2023/01/24 09:24:44;;;;;;;1999.90;999.90;;;2.90;99.90;;;;;;6707766;88;20202;-77
2023/01/24 09:34:48;;;;;;;1999.90;999.90;;;3.00;99.90;;;;;;6709743;88;20329;-79
2023/01/24 09:45:06;;;;;;;1999.90;999.90;;;3.00;99.90;;;;;;6718202;88;20185;-77
2023/01/24 09:55:13;;;;;;;1999.90;999.90;;;3.00;99.90;;;;;;6723356;88;20174;-78
2023/01/24 10:05:15;;;;;;;1999.90;999.90;;;3.10;99.90;;;;;;6720821;88;20215;-78
2023/01/24 10:15:52;;;;;;;1999.90;999.90;;;3.30;99.90;;;;;;6710890;88;20224;-77
2023/01/24 10:25:56;;;;;;;;;;;3.20;99.90;;;;;;6720080;77;20322;-74
2023/01/24 10:36:08;;;;;;;1999.90;999.90;;;3.40;99.90;;;;;;6719500;88;20076;-74
2023/01/24 10:46:28;;;;;;;1999.90;999.90;;;3.40;99.90;;;;;;6722003;88;20186;-74
2023/01/24 10:56:29;;;;;;;1999.90;999.90;;;3.70;99.90;;;;;;6725196;88;20208;-74
2023/01/24 11:06:38;;;;;;;1999.90;999.90;;;3.60;99.90;;;;;;6723912;88;20229;-73
2023/01/24 11:16:43;;;;;;;1999.90;999.90;;;3.60;99.90;;;;;;6723794;88;20178;-74
2023/01/24 11:27:05;;;;;;;1999.90;999.90;;;3.50;99.90;;;;;;6723515;88;20358;-75
2023/01/24 11:37:26;;;;;;;1999.90;999.90;;;3.60;99.90;;;;;;6719813;88;20601;-74
2023/01/24 11:47:36;;;;;;;1999.90;999.90;;;3.60;99.90;;;;;;6723986;88;20181;-74
2023/01/24 11:58:05;;;;;;;1999.90;999.90;;;3.60;99.90;;;;;;6727605;88;20298;-74
2023/01/24 12:08:22;;;;;;;1999.90;999.90;;;3.60;99.90;;;;;;6720312;88;20196;-73
2023/01/24 12:18:23;;;;;;;1999.90;999.90;;;3.60;99.90;;;;;;6722758;88;20219;-74
2023/01/24 12:29:03;;;;;;;1999.90;999.90;;;3.60;99.90;;;;;;6722898;88;20332;-74
2023/01/24 12:39:15;;;;;;;1999.90;999.90;;;3.70;99.90;;;;;;6722978;88;20204;-74
2023/01/24 12:49:38;;;;;;;1999.90;999.90;;;3.80;99.90;;;;;;6722196;88;20203;-75
2023/01/24 12:59:39;;;;;;;1999.90;999.90;;;4.00;99.90;;;;;;6721018;88;20198;-75
2023/01/24 13:10:13;;;;;;;1999.90;999.90;;;4.00;99.90;;;;;;6722536;88;20181;-75
2023/01/24 13:20:28;;;;;;;1999.90;999.90;;;3.70;99.90;;;;;;6729234;88;20546;-75
2023/01/24 13:30:49;;;;;;;1999.90;999.90;;;3.70;99.90;;;;;;6733682;88;20201;-75
2023/01/24 13:41:24;;;;;;;1999.90;999.90;;;3.70;99.90;;;;;;6719668;88;20252;-74
2023/01/24 13:51:33;;;;;;;1999.90;999.90;;;3.60;99.90;;;;;;6719474;88;20607;-74
2023/01/24 14:01:42;;;;;;;1999.90;999.90;;;3.70;99.90;;;;;;6723531;88;20642;-74
2023/01/24 14:11:58;;;;;;;1999.90;999.90;;;3.60;99.90;;;;;;6719585;88;20198;-74
2023/01/24 14:22:10;;;;;;;1999.90;999.90;;;3.30;99.90;;;;;;6723864;88;20178;-74
2023/01/24 14:32:35;;;;;;;1999.90;999.90;;;3.50;99.90;;;;;;6723118;88;20762;-74
2023/01/24 14:42:36;;;;;;;1999.90;999.90;;;3.60;99.90;;;;;;6727972;88;20657;-75
2023/01/24 14:52:37;;;;;;;1999.90;999.90;;;3.30;99.90;;;;;;6724169;88;20719;-74
2023/01/24 15:02:49;;;;;;;1999.90;999.90;;;3.40;99.90;;;;;;6722778;88;20796;-75
2023/01/24 15:12:55;;;;;;;1999.90;999.90;;;3.30;99.90;;;;;;6720101;88;20205;-74
2023/01/24 15:23:02;;;;;;;1999.90;999.90;;;3.30;99.90;;;;;;6741555;88;20590;-73
2023/01/24 15:33:11;;;;;;;1999.90;999.90;;;3.30;99.90;;;;;;6736656;88;20185;-74
2023/01/24 15:43:46;;;;;;;1999.90;999.90;;;3.10;99.90;;;;;;6732073;88;20203;-75
2023/01/24 15:53:46;;;;;;;1999.90;999.90;;;3.20;99.90;;;;;;6723131;88;20185;-73
2023/01/24 16:03:47;;;;;;;1999.90;999.90;;;3.10;99.90;;;;;;6727328;88;20259;-75
2023/01/24 16:13:55;;;;;;;1999.90;999.90;;;3.10;99.90;;;;;;6730310;88;20189;-74
2023/01/24 16:23:55;;;;;;;1999.90;999.90;;;3.20;99.90;;;;;;6723220;88;20201;-74
2023/01/24 16:33:56;;;;;;;1999.90;999.90;;;2.90;99.90;;;;;;6725619;88;20371;-73
2023/01/24 16:43:56;;;;;;;1999.90;999.90;;;3.00;99.90;;;;;;6736021;77;20191;-76
2023/01/24 16:53:57;;;;;;;1999.90;999.90;;;3.10;99.90;;;;;;6728807;88;20230;-74
2023/01/24 17:03:58;;;;;;;1999.90;999.90;;;2.80;99.90;;;;;;6723656;88;20478;-77
2023/01/24 17:13:58;;;;;;;1999.90;999.90;;;2.80;99.90;;;;;;6723948;88;20204;-74
2023/01/24 17:23:59;;;;;;;1999.90;999.90;;;2.90;99.90;;;;;;6728675;88;20575;-74
2023/01/24 17:34:00;;;;;;;1999.90;999.90;;;2.70;99.90;;;;;;6729005;88;20609;-75
2023/01/24 17:44:00;;;;;;;1999.90;999.90;;;2.80;99.90;;;;;;6724168;88;20205;-76
2023/01/24 17:54:01;;;;;;;1999.90;999.90;;;2.50;99.90;;;;;;6729014;88;20274;-74
2023/01/24 18:04:03;;;;;;;1999.90;999.90;;;2.60;99.90;;;;;;6726535;88;20303;-74
2023/01/24 18:14:04;;;;;;;1999.90;999.90;;;2.60;99.90;;;;;;6731653;88;21034;-75
2023/01/24 18:24:05;;;;;;;1999.90;999.90;;;2.60;99.90;;;;;;6728886;88;20228;-75
2023/01/24 18:34:09;;;;;;;1999.90;999.90;;;2.60;99.90;;;;;;6729440;88;20182;-75
2023/01/24 18:44:11;;;;;;;1999.90;999.90;;;2.50;99.90;;;;;;6732324;88;21371;-74
2023/01/24 18:54:12;;;;;;;1999.90;999.90;;;2.70;99.90;;;;;;6730178;88;20248;-74
2023/01/24 19:04:13;;;;;;;1999.90;999.90;;;2.60;99.90;;;;;;6731590;88;20252;-73
2023/01/24 19:14:14;;;;;;;1999.90;999.90;;;2.50;99.90;;;;;;6730263;88;20245;-73
2023/01/24 19:24:15;;;;;;;1999.90;999.90;;;2.50;99.90;;;;;;6728670;88;20239;-74
2023/01/24 19:34:15;;;;;;;1999.90;999.90;;;2.60;99.90;;;;;;6725548;88;20194;-73
2023/01/24 19:44:19;;;;;;;1999.90;999.90;;;2.50;99.90;;;;;;6727943;88;20227;-75
2023/01/24 19:54:20;;;;;;;1999.90;999.90;;;2.30;99.90;;;;;;6729081;88;20619;-75
2023/01/24 20:04:20;;;;;;;1999.90;999.90;;;2.40;99.90;;;;;;6724275;88;20204;-75
2023/01/24 20:14:21;;;;;;;1999.90;999.90;;;2.20;99.90;;;;;;6727043;88;20481;-76
2023/01/24 20:24:21;;;;;;;1999.90;999.90;;;2.20;99.90;;;;;;6729760;88;20173;-75
2023/01/24 20:34:22;;;;;;;1999.90;999.90;;;2.20;99.90;;;;;;6724940;88;20543;-76
2023/01/24 20:44:23;;;;;;;1999.90;999.90;;;2.20;99.90;;;;;;6727372;88;20287;-75
2023/01/24 20:54:24;;;;;;;1999.90;999.90;;;2.30;99.90;;;;;;6730937;88;20249;-74
2023/01/24 21:04:24;;;;;;;1999.90;999.90;;;2.30;99.90;;;;;;6731718;88;20330;-74
2023/01/24 21:14:26;;;;;;;1999.90;999.90;;;2.40;99.90;;;;;;6728409;88;20578;-76
2023/01/24 21:24:26;;;;;;;1999.90;999.90;;;2.40;99.90;;;;;;6727873;88;20617;-75
2023/01/24 21:34:27;;;;;;;1999.90;999.90;;;2.30;99.90;;;;;;6730770;88;20182;-75
2023/01/24 21:44:32;;;;;;;1999.90;999.90;;;2.40;99.90;;;;;;6730070;88;20206;-75
2023/01/24 21:54:35;;;;;;;1999.90;999.90;;;2.30;99.90;;;;;;6739851;88;20194;-75
2023/01/24 22:04:35;;;;;;;1999.90;999.90;;;2.30;99.90;;;;;;6732981;88;20572;-74
2023/01/24 22:14:36;;;;;;;1999.90;999.90;;;2.20;99.90;;;;;;6724489;88;20197;-74
2023/01/24 22:24:58;;;;;;;1999.90;999.90;;;2.30;99.90;;;;;;6730648;88;20312;-76
2023/01/24 22:34:58;;;;;;;1999.90;999.90;;;2.40;99.90;;;;;;6731814;88;20185;-73
2023/01/24 22:56:04;;;;;;;1999.90;999.90;;;2.30;99.90;;;;;;6646558;89;20256;-78
2023/01/24 23:06:09;;;;;;;1999.90;999.90;;;2.30;99.90;;;;;;6640389;89;20359;-79
2023/01/24 23:16:13;;;;;;;1999.90;999.90;;;2.30;99.90;;;;;;6644838;89;20193;-79
2023/01/24 23:26:14;;;;;;;1999.90;999.90;;;2.20;99.90;;;;;;6625827;89;20233;-79
2023/01/24 23:36:14;;;;;;;1999.90;999.90;;;2.10;99.90;;;;;;6628976;89;20331;-79
2023/01/24 23:46:15;;;;;;;1999.90;999.90;;;2.20;99.90;;;;;;6629025;89;20219;-79
2023/01/24 23:56:16;;;;;;;1999.90;999.90;;;1.90;99.90;;;;;;6629632;89;20202;-79
